sensor_id;sensor_type;location;lat;lon;timestamp;temperature;humidity
77056;SHT30;67471;44.918;8.614;2024-01-27T00:00:20;3.80;84.18
77056;SHT30;67471;44.918;8.614;2024-01-27T00:03:23;3.88;83.86
77056;SHT30;67471;44.918;8.614;2024-01-27T00:06:27;3.94;84.23
77056;SHT30;67471;44.918;8.614;2024-01-27T00:09:31;3.94;84.71
77056;SHT30;67471;44.918;8.614;2024-01-27T00:12:36;3.91;85.05
77056;SHT30;67471;44.918;8.614;2024-01-27T00:15:39;4.05;84.40
77056;SHT30;67471;44.918;8.614;2024-01-27T00:18:43;3.97;84.91
77056;SHT30;67471;44.918;8.614;2024-01-27T00:21:47;4.00;85.43
77056;SHT30;67471;44.918;8.614;2024-01-27T00:24:51;4.05;85.42
77056;SHT30;67471;44.918;8.614;2024-01-27T00:27:55;4.10;85.67
77056;SHT30;67471;44.918;8.614;2024-01-27T00:30:59;4.02;86.49
77056;SHT30;67471;44.918;8.614;2024-01-27T00:34:02;4.10;86.49
77056;SHT30;67471;44.918;8.614;2024-01-27T00:37:06;4.07;86.68
77056;SHT30;67471;44.918;8.614;2024-01-27T00:40:11;4.04;87.32
77056;SHT30;67471;44.918;8.614;2024-01-27T00:43:14;4.11;87.08
77056;SHT30;67471;44.918;8.614;2024-01-27T00:46:18;4.10;87.28
77056;SHT30;67471;44.918;8.614;2024-01-27T00:49:22;4.15;87.25
77056;SHT30;67471;44.918;8.614;2024-01-27T00:52:26;4.24;87.16
77056;SHT30;67471;44.918;8.614;2024-01-27T00:55:29;4.21;87.46
77056;SHT30;67471;44.918;8.614;2024-01-27T00:58:34;4.21;87.47
77056;SHT30;67471;44.918;8.614;2024-01-27T01:01:37;4.24;87.73
77056;SHT30;67471;44.918;8.614;2024-01-27T01:04:41;4.31;87.39
77056;SHT30;67471;44.918;8.614;2024-01-27T01:07:45;4.22;87.58
77056;SHT30;67471;44.918;8.614;2024-01-27T01:10:49;4.31;87.37
77056;SHT30;67471;44.918;8.614;2024-01-27T01:13:53;4.31;87.72
77056;SHT30;67471;44.918;8.614;2024-01-27T01:16:57;4.46;87.21
77056;SHT30;67471;44.918;8.614;2024-01-27T01:20:01;4.48;87.08
77056;SHT30;67471;44.918;8.614;2024-01-27T01:23:05;4.44;87.20
77056;SHT30;67471;44.918;8.614;2024-01-27T01:26:09;4.46;87.71
77056;SHT30;67471;44.918;8.614;2024-01-27T01:29:13;4.49;87.33
77056;SHT30;67471;44.918;8.614;2024-01-27T01:32:17;4.41;87.30
77056;SHT30;67471;44.918;8.614;2024-01-27T01:35:20;4.42;87.80
77056;SHT30;67471;44.918;8.614;2024-01-27T01:38:24;4.39;87.98
77056;SHT30;67471;44.918;8.614;2024-01-27T01:41:28;4.41;87.72
77056;SHT30;67471;44.918;8.614;2024-01-27T01:44:32;4.48;87.50
77056;SHT30;67471;44.918;8.614;2024-01-27T01:47:36;4.38;87.51
77056;SHT30;67471;44.918;8.614;2024-01-27T01:50:40;4.38;87.36
77056;SHT30;67471;44.918;8.614;2024-01-27T01:53:45;4.38;87.74
77056;SHT30;67471;44.918;8.614;2024-01-27T01:56:51;4.34;88.25
77056;SHT30;67471;44.918;8.614;2024-01-27T01:59:54;4.28;88.43
77056;SHT30;67471;44.918;8.614;2024-01-27T02:02:58;4.37;88.19
77056;SHT30;67471;44.918;8.614;2024-01-27T02:06:02;4.39;87.73
77056;SHT30;67471;44.918;8.614;2024-01-27T02:09:06;4.38;87.96
77056;SHT30;67471;44.918;8.614;2024-01-27T02:12:10;4.37;88.09
77056;SHT30;67471;44.918;8.614;2024-01-27T02:15:14;4.46;88.06
77056;SHT30;67471;44.918;8.614;2024-01-27T02:18:17;4.48;87.85
77056;SHT30;67471;44.918;8.614;2024-01-27T02:21:21;4.35;87.97
77056;SHT30;67471;44.918;8.614;2024-01-27T02:24:25;4.39;88.00
77056;SHT30;67471;44.918;8.614;2024-01-27T02:27:30;4.45;87.97
77056;SHT30;67471;44.918;8.614;2024-01-27T02:30:34;4.56;87.51
77056;SHT30;67471;44.918;8.614;2024-01-27T02:33:38;4.45;87.30
77056;SHT30;67471;44.918;8.614;2024-01-27T02:36:42;4.34;87.46
77056;SHT30;67471;44.918;8.614;2024-01-27T02:39:47;4.38;87.84
77056;SHT30;67471;44.918;8.614;2024-01-27T02:42:51;4.38;87.65
77056;SHT30;67471;44.918;8.614;2024-01-27T02:45:55;4.38;87.75
77056;SHT30;67471;44.918;8.614;2024-01-27T02:48:58;4.38;87.42
77056;SHT30;67471;44.918;8.614;2024-01-27T02:52:02;4.42;87.46
77056;SHT30;67471;44.918;8.614;2024-01-27T02:55:06;4.46;87.22
77056;SHT30;67471;44.918;8.614;2024-01-27T02:58:10;4.49;86.77
77056;SHT30;67471;44.918;8.614;2024-01-27T03:01:14;4.52;86.59
77056;SHT30;67471;44.918;8.614;2024-01-27T03:04:18;4.44;86.46
77056;SHT30;67471;44.918;8.614;2024-01-27T03:07:22;4.41;86.82
77056;SHT30;67471;44.918;8.614;2024-01-27T03:10:25;4.35;87.40
77056;SHT30;67471;44.918;8.614;2024-01-27T03:13:29;4.46;87.17
77056;SHT30;67471;44.918;8.614;2024-01-27T03:16:33;4.28;87.11
77056;SHT30;67471;44.918;8.614;2024-01-27T03:19:36;4.22;87.26
77056;SHT30;67471;44.918;8.614;2024-01-27T03:22:40;4.17;87.29
77056;SHT30;67471;44.918;8.614;2024-01-27T03:25:45;3.95;87.96
77056;SHT30;67471;44.918;8.614;2024-01-27T03:28:49;3.87;88.19
77056;SHT30;67471;44.918;8.614;2024-01-27T03:31:53;3.81;88.27
77056;SHT30;67471;44.918;8.614;2024-01-27T03:34:57;3.76;89.03
77056;SHT30;67471;44.918;8.614;2024-01-27T03:38:00;3.86;88.48
77056;SHT30;67471;44.918;8.614;2024-01-27T03:41:04;3.76;89.01
77056;SHT30;67471;44.918;8.614;2024-01-27T03:44:08;3.74;88.69
77056;SHT30;67471;44.918;8.614;2024-01-27T03:47:13;3.87;88.57
77056;SHT30;67471;44.918;8.614;2024-01-27T03:50:17;3.90;88.27
77056;SHT30;67471;44.918;8.614;2024-01-27T03:53:21;3.93;88.38
77056;SHT30;67471;44.918;8.614;2024-01-27T03:56:24;3.95;88.52
77056;SHT30;67471;44.918;8.614;2024-01-27T03:59:28;4.07;87.81
77056;SHT30;67471;44.918;8.614;2024-01-27T04:02:32;4.02;87.53
77056;SHT30;67471;44.918;8.614;2024-01-27T04:05:36;4.02;88.19
77056;SHT30;67471;44.918;8.614;2024-01-27T04:08:40;4.04;87.64
77056;SHT30;67471;44.918;8.614;2024-01-27T04:11:47;4.04;87.39
77056;SHT30;67471;44.918;8.614;2024-01-27T04:14:50;3.94;87.97
77056;SHT30;67471;44.918;8.614;2024-01-27T04:17:55;4.00;87.75
77056;SHT30;67471;44.918;8.614;2024-01-27T04:20:58;4.10;86.73
77056;SHT30;67471;44.918;8.614;2024-01-27T04:24:02;4.00;87.51
77056;SHT30;67471;44.918;8.614;2024-01-27T04:27:06;4.01;87.55
77056;SHT30;67471;44.918;8.614;2024-01-27T04:30:11;3.98;87.49
77056;SHT30;67471;44.918;8.614;2024-01-27T04:33:16;3.98;87.87
77056;SHT30;67471;44.918;8.614;2024-01-27T04:36:27;4.05;87.37
77056;SHT30;67471;44.918;8.614;2024-01-27T04:39:31;4.05;86.95
77056;SHT30;67471;44.918;8.614;2024-01-27T04:42:37;4.00;87.26
77056;SHT30;67471;44.918;8.614;2024-01-27T04:45:41;3.94;87.25
77056;SHT30;67471;44.918;8.614;2024-01-27T04:48:45;3.94;87.26
77056;SHT30;67471;44.918;8.614;2024-01-27T04:51:49;3.88;87.30
77056;SHT30;67471;44.918;8.614;2024-01-27T04:54:53;3.88;87.15
77056;SHT30;67471;44.918;8.614;2024-01-27T04:57:57;3.87;87.20
77056;SHT30;67471;44.918;8.614;2024-01-27T05:01:02;3.70;87.68
77056;SHT30;67471;44.918;8.614;2024-01-27T05:04:05;3.70;88.09
77056;SHT30;67471;44.918;8.614;2024-01-27T05:07:09;3.83;87.86
77056;SHT30;67471;44.918;8.614;2024-01-27T05:10:12;3.97;87.15
77056;SHT30;67471;44.918;8.614;2024-01-27T05:13:16;3.93;87.10
77056;SHT30;67471;44.918;8.614;2024-01-27T05:16:20;3.83;86.69
77056;SHT30;67471;44.918;8.614;2024-01-27T05:19:24;3.87;86.51
77056;SHT30;67471;44.918;8.614;2024-01-27T05:22:27;3.67;86.48
77056;SHT30;67471;44.918;8.614;2024-01-27T05:25:31;3.79;86.55
77056;SHT30;67471;44.918;8.614;2024-01-27T05:28:35;3.91;86.05
77056;SHT30;67471;44.918;8.614;2024-01-27T05:31:39;3.83;86.26
77056;SHT30;67471;44.918;8.614;2024-01-27T05:34:46;3.86;86.04
77056;SHT30;67471;44.918;8.614;2024-01-27T05:37:51;3.62;86.19
77056;SHT30;67471;44.918;8.614;2024-01-27T05:40:55;3.49;86.47
77056;SHT30;67471;44.918;8.614;2024-01-27T05:43:58;3.53;85.95
77056;SHT30;67471;44.918;8.614;2024-01-27T05:47:02;3.60;85.90
77056;SHT30;67471;44.918;8.614;2024-01-27T05:50:06;3.55;85.40
77056;SHT30;67471;44.918;8.614;2024-01-27T05:53:11;3.59;85.02
77056;SHT30;67471;44.918;8.614;2024-01-27T05:56:15;3.55;84.51
77056;SHT30;67471;44.918;8.614;2024-01-27T05:59:21;3.39;85.10
77056;SHT30;67471;44.918;8.614;2024-01-27T06:02:25;3.38;84.80
77056;SHT30;67471;44.918;8.614;2024-01-27T06:05:29;3.40;84.37
77056;SHT30;67471;44.918;8.614;2024-01-27T06:08:32;3.42;84.19
77056;SHT30;67471;44.918;8.614;2024-01-27T06:11:37;3.32;84.71
77056;SHT30;67471;44.918;8.614;2024-01-27T06:14:41;3.28;84.10
77056;SHT30;67471;44.918;8.614;2024-01-27T06:17:44;3.07;85.19
77056;SHT30;67471;44.918;8.614;2024-01-27T06:20:48;2.97;85.65
77056;SHT30;67471;44.918;8.614;2024-01-27T06:23:51;2.87;86.01
77056;SHT30;67471;44.918;8.614;2024-01-27T06:26:54;2.92;85.74
77056;SHT30;67471;44.918;8.614;2024-01-27T06:29:58;2.87;85.97
77056;SHT30;67471;44.918;8.614;2024-01-27T06:33:02;2.83;86.03
77056;SHT30;67471;44.918;8.614;2024-01-27T06:36:06;2.73;86.60
77056;SHT30;67471;44.918;8.614;2024-01-27T06:39:11;2.89;86.03
77056;SHT30;67471;44.918;8.614;2024-01-27T06:42:15;2.83;86.75
77056;SHT30;67471;44.918;8.614;2024-01-27T06:45:19;2.77;86.79
77056;SHT30;67471;44.918;8.614;2024-01-27T06:48:23;2.74;87.20
77056;SHT30;67471;44.918;8.614;2024-01-27T06:51:29;2.84;86.79
77056;SHT30;67471;44.918;8.614;2024-01-27T06:54:33;2.83;87.29
77056;SHT30;67471;44.918;8.614;2024-01-27T06:57:37;2.87;86.59
77056;SHT30;67471;44.918;8.614;2024-01-27T07:00:41;2.68;86.75
77056;SHT30;67471;44.918;8.614;2024-01-27T07:03:45;2.71;87.40
77056;SHT30;67471;44.918;8.614;2024-01-27T07:06:48;2.70;87.24
77056;SHT30;67471;44.918;8.614;2024-01-27T07:09:54;2.62;87.50
77056;SHT30;67471;44.918;8.614;2024-01-27T07:12:58;2.68;87.18
77056;SHT30;67471;44.918;8.614;2024-01-27T07:16:02;2.85;86.78
77056;SHT30;67471;44.918;8.614;2024-01-27T07:19:06;2.81;86.50
77056;SHT30;67471;44.918;8.614;2024-01-27T07:22:10;2.97;85.76
77056;SHT30;67471;44.918;8.614;2024-01-27T07:25:14;2.94;85.86
77056;SHT30;67471;44.918;8.614;2024-01-27T07:28:18;2.91;86.19
77056;SHT30;67471;44.918;8.614;2024-01-27T07:31:21;2.94;86.32
77056;SHT30;67471;44.918;8.614;2024-01-27T07:34:26;2.97;85.49
77056;SHT30;67471;44.918;8.614;2024-01-27T07:37:30;2.92;86.05
77056;SHT30;67471;44.918;8.614;2024-01-27T07:40:33;2.91;86.07
77056;SHT30;67471;44.918;8.614;2024-01-27T07:43:37;2.88;84.99
77056;SHT30;67471;44.918;8.614;2024-01-27T07:46:41;2.91;85.47
77056;SHT30;67471;44.918;8.614;2024-01-27T07:49:45;2.74;85.06
77056;SHT30;67471;44.918;8.614;2024-01-27T07:52:49;2.67;85.30
77056;SHT30;67471;44.918;8.614;2024-01-27T07:55:53;2.84;85.66
77056;SHT30;67471;44.918;8.614;2024-01-27T07:58:57;2.80;85.83
77056;SHT30;67471;44.918;8.614;2024-01-27T08:02:01;2.99;85.21
77056;SHT30;67471;44.918;8.614;2024-01-27T08:05:05;3.11;85.00
77056;SHT30;67471;44.918;8.614;2024-01-27T08:08:09;3.04;85.30
77056;SHT30;67471;44.918;8.614;2024-01-27T08:11:17;3.19;84.62
77056;SHT30;67471;44.918;8.614;2024-01-27T08:14:20;3.11;84.59
77056;SHT30;67471;44.918;8.614;2024-01-27T08:17:25;3.15;84.42
77056;SHT30;67471;44.918;8.614;2024-01-27T08:20:29;3.13;83.49
77056;SHT30;67471;44.918;8.614;2024-01-27T08:23:33;3.26;83.75
77056;SHT30;67471;44.918;8.614;2024-01-27T08:26:37;3.23;83.54
77056;SHT30;67471;44.918;8.614;2024-01-27T08:29:40;3.22;84.10
77056;SHT30;67471;44.918;8.614;2024-01-27T08:32:44;3.25;84.53
77056;SHT30;67471;44.918;8.614;2024-01-27T08:35:48;3.35;83.92
77056;SHT30;67471;44.918;8.614;2024-01-27T08:38:52;3.26;83.24
77056;SHT30;67471;44.918;8.614;2024-01-27T08:41:56;3.39;83.27
77056;SHT30;67471;44.918;8.614;2024-01-27T08:44:59;3.38;83.50
77056;SHT30;67471;44.918;8.614;2024-01-27T08:48:04;3.62;83.08
77056;SHT30;67471;44.918;8.614;2024-01-27T08:51:08;3.67;82.06
77056;SHT30;67471;44.918;8.614;2024-01-27T08:54:12;3.76;82.25
77056;SHT30;67471;44.918;8.614;2024-01-27T08:57:16;3.87;81.77
77056;SHT30;67471;44.918;8.614;2024-01-27T09:00:20;3.97;81.59
77056;SHT30;67471;44.918;8.614;2024-01-27T09:03:24;4.00;81.59
77056;SHT30;67471;44.918;8.614;2024-01-27T09:06:27;4.18;81.15
77056;SHT30;67471;44.918;8.614;2024-01-27T09:09:31;4.39;80.36
77056;SHT30;67471;44.918;8.614;2024-01-27T09:12:35;4.69;79.47
77056;SHT30;67471;44.918;8.614;2024-01-27T09:15:39;5.26;78.24
77056;SHT30;67471;44.918;8.614;2024-01-27T09:18:43;5.95;74.98
77056;SHT30;67471;44.918;8.614;2024-01-27T09:21:46;6.89;72.39
77056;SHT30;67471;44.918;8.614;2024-01-27T09:24:51;7.50;69.49
77056;SHT30;67471;44.918;8.614;2024-01-27T09:27:55;8.09;67.85
77056;SHT30;67471;44.918;8.614;2024-01-27T09:31:00;9.14;64.96
77056;SHT30;67471;44.918;8.614;2024-01-27T09:34:04;10.34;60.85
77056;SHT30;67471;44.918;8.614;2024-01-27T09:37:07;11.54;57.26
77056;SHT30;67471;44.918;8.614;2024-01-27T09:40:12;12.08;55.18
77056;SHT30;67471;44.918;8.614;2024-01-27T09:43:17;12.48;53.57
77056;SHT30;67471;44.918;8.614;2024-01-27T09:46:22;13.07;52.37
77056;SHT30;67471;44.918;8.614;2024-01-27T09:49:26;13.40;52.16
77056;SHT30;67471;44.918;8.614;2024-01-27T09:52:30;13.10;52.03
77056;SHT30;67471;44.918;8.614;2024-01-27T09:55:34;13.10;53.42
77056;SHT30;67471;44.918;8.614;2024-01-27T09:58:38;12.83;53.81
77056;SHT30;67471;44.918;8.614;2024-01-27T10:01:41;12.96;53.41
77056;SHT30;67471;44.918;8.614;2024-01-27T10:04:47;13.22;53.11
77056;SHT30;67471;44.918;8.614;2024-01-27T10:07:51;13.27;53.89
77056;SHT30;67471;44.918;8.614;2024-01-27T10:10:56;13.49;53.53
77056;SHT30;67471;44.918;8.614;2024-01-27T10:14:00;13.27;53.78
77056;SHT30;67471;44.918;8.614;2024-01-27T10:17:04;12.96;55.24
77056;SHT30;67471;44.918;8.614;2024-01-27T10:20:08;12.52;56.29
77056;SHT30;67471;44.918;8.614;2024-01-27T10:23:13;12.41;57.36
77056;SHT30;67471;44.918;8.614;2024-01-27T10:26:17;12.41;57.45
77056;SHT30;67471;44.918;8.614;2024-01-27T10:29:21;11.97;58.07
77056;SHT30;67471;44.918;8.614;2024-01-27T10:32:25;11.92;59.36
77056;SHT30;67471;44.918;8.614;2024-01-27T10:35:29;11.77;59.91
77056;SHT30;67471;44.918;8.614;2024-01-27T10:38:37;11.95;59.96
77056;SHT30;67471;44.918;8.614;2024-01-27T10:41:44;12.15;59.67
77056;SHT30;67471;44.918;8.614;2024-01-27T10:44:48;12.45;58.98
77056;SHT30;67471;44.918;8.614;2024-01-27T10:47:54;12.55;59.26
77056;SHT30;67471;44.918;8.614;2024-01-27T10:51:03;12.49;59.52
77056;SHT30;67471;44.918;8.614;2024-01-27T10:54:14;12.84;59.51
77056;SHT30;67471;44.918;8.614;2024-01-27T10:57:18;13.07;59.09
77056;SHT30;67471;44.918;8.614;2024-01-27T11:00:23;13.17;58.93
77056;SHT30;67471;44.918;8.614;2024-01-27T11:03:28;13.22;58.99
77056;SHT30;67471;44.918;8.614;2024-01-27T11:06:33;13.35;58.50
77056;SHT30;67471;44.918;8.614;2024-01-27T11:09:39;13.47;58.41
77056;SHT30;67471;44.918;8.614;2024-01-27T11:12:43;13.66;58.28
77056;SHT30;67471;44.918;8.614;2024-01-27T11:15:52;13.85;57.55
77056;SHT30;67471;44.918;8.614;2024-01-27T11:18:56;13.98;57.15
77056;SHT30;67471;44.918;8.614;2024-01-27T11:22:03;14.02;56.93
77056;SHT30;67471;44.918;8.614;2024-01-27T11:28:12;14.31;56.50
77056;SHT30;67471;44.918;8.614;2024-01-27T11:31:19;14.14;56.48
77056;SHT30;67471;44.918;8.614;2024-01-27T11:34:23;14.27;56.69
77056;SHT30;67471;44.918;8.614;2024-01-27T11:37:30;14.47;56.48
77056;SHT30;67471;44.918;8.614;2024-01-27T11:40:33;14.63;56.12
77056;SHT30;67471;44.918;8.614;2024-01-27T11:43:54;14.89;55.51
77056;SHT30;67471;44.918;8.614;2024-01-27T11:46:59;15.11;55.43
77056;SHT30;67471;44.918;8.614;2024-01-27T11:50:03;15.19;55.47
77056;SHT30;67471;44.918;8.614;2024-01-27T11:53:07;15.28;55.22
77056;SHT30;67471;44.918;8.614;2024-01-27T11:56:13;15.42;54.96
77056;SHT30;67471;44.918;8.614;2024-01-27T11:59:17;15.54;54.69
77056;SHT30;67471;44.918;8.614;2024-01-27T12:02:22;15.64;54.22
77056;SHT30;67471;44.918;8.614;2024-01-27T12:05:27;15.11;55.30
77056;SHT30;67471;44.918;8.614;2024-01-27T12:08:31;15.35;55.45
77056;SHT30;67471;44.918;8.614;2024-01-27T12:11:34;15.36;55.60
77056;SHT30;67471;44.918;8.614;2024-01-27T12:14:45;15.46;55.08
77056;SHT30;67471;44.918;8.614;2024-01-27T12:17:51;15.51;54.69
77056;SHT30;67471;44.918;8.614;2024-01-27T12:20:56;15.59;54.91
77056;SHT30;67471;44.918;8.614;2024-01-27T12:24:03;15.74;54.01
77056;SHT30;67471;44.918;8.614;2024-01-27T12:27:08;15.66;54.19
77056;SHT30;67471;44.918;8.614;2024-01-27T12:30:12;15.73;54.32
77056;SHT30;67471;44.918;8.614;2024-01-27T12:33:16;15.93;54.26
77056;SHT30;67471;44.918;8.614;2024-01-27T12:36:23;15.96;54.17
77056;SHT30;67471;44.918;8.614;2024-01-27T12:39:26;16.10;53.70
77056;SHT30;67471;44.918;8.614;2024-01-27T12:42:30;16.18;53.59
77056;SHT30;67471;44.918;8.614;2024-01-27T12:45:34;16.29;53.02
77056;SHT30;67471;44.918;8.614;2024-01-27T12:48:38;16.15;53.01
77056;SHT30;67471;44.918;8.614;2024-01-27T12:51:42;16.10;53.02
77056;SHT30;67471;44.918;8.614;2024-01-27T12:54:46;16.08;53.28
77056;SHT30;67471;44.918;8.614;2024-01-27T12:57:50;16.08;53.35
77056;SHT30;67471;44.918;8.614;2024-01-27T13:00:54;16.01;53.09
77056;SHT30;67471;44.918;8.614;2024-01-27T13:03:57;16.11;52.86
77056;SHT30;67471;44.918;8.614;2024-01-27T13:07:01;16.21;52.42
77056;SHT30;67471;44.918;8.614;2024-01-27T13:10:05;16.47;52.09
77056;SHT30;67471;44.918;8.614;2024-01-27T13:13:09;16.38;51.90
77056;SHT30;67471;44.918;8.614;2024-01-27T13:16:13;16.52;52.30
77056;SHT30;67471;44.918;8.614;2024-01-27T13:19:16;16.49;52.53
77056;SHT30;67471;44.918;8.614;2024-01-27T13:22:20;16.49;52.25
77056;SHT30;67471;44.918;8.614;2024-01-27T13:25:27;16.44;52.19
77056;SHT30;67471;44.918;8.614;2024-01-27T13:28:31;16.44;51.40
77056;SHT30;67471;44.918;8.614;2024-01-27T13:31:35;16.42;51.77
77056;SHT30;67471;44.918;8.614;2024-01-27T13:34:39;16.56;51.10
77056;SHT30;67471;44.918;8.614;2024-01-27T13:37:43;16.72;51.29
77056;SHT30;67471;44.918;8.614;2024-01-27T13:40:46;16.72;51.29
77056;SHT30;67471;44.918;8.614;2024-01-27T13:43:50;16.77;50.91
77056;SHT30;67471;44.918;8.614;2024-01-27T13:46:54;16.89;51.29
77056;SHT30;67471;44.918;8.614;2024-01-27T13:50:04;16.93;51.09
77056;SHT30;67471;44.918;8.614;2024-01-27T13:53:08;16.91;51.02
77056;SHT30;67471;44.918;8.614;2024-01-27T13:56:12;16.97;50.96
77056;SHT30;67471;44.918;8.614;2024-01-27T13:59:16;16.93;50.92
77056;SHT30;67471;44.918;8.614;2024-01-27T14:02:19;17.02;50.56
77056;SHT30;67471;44.918;8.614;2024-01-27T14:05:24;17.09;50.65
77056;SHT30;67471;44.918;8.614;2024-01-27T14:08:27;17.09;50.48
77056;SHT30;67471;44.918;8.614;2024-01-27T14:11:31;17.14;50.84
77056;SHT30;67471;44.918;8.614;2024-01-27T14:14:34;17.02;51.17
77056;SHT30;67471;44.918;8.614;2024-01-27T14:17:42;17.04;50.72
77056;SHT30;67471;44.918;8.614;2024-01-27T14:20:47;17.02;51.00
77056;SHT30;67471;44.918;8.614;2024-01-27T14:23:51;17.07;50.89
77056;SHT30;67471;44.918;8.614;2024-01-27T14:27:00;17.19;50.58
77056;SHT30;67471;44.918;8.614;2024-01-27T14:30:03;17.04;51.17
77056;SHT30;67471;44.918;8.614;2024-01-27T14:33:07;17.09;51.03
77056;SHT30;67471;44.918;8.614;2024-01-27T14:36:12;17.10;52.04
77056;SHT30;67471;44.918;8.614;2024-01-27T14:39:16;17.13;52.98
77056;SHT30;67471;44.918;8.614;2024-01-27T14:42:20;17.09;53.47
77056;SHT30;67471;44.918;8.614;2024-01-27T14:45:24;17.09;53.87
77056;SHT30;67471;44.918;8.614;2024-01-27T14:48:28;17.09;54.07
77056;SHT30;67471;44.918;8.614;2024-01-27T14:51:32;17.03;54.13
77056;SHT30;67471;44.918;8.614;2024-01-27T14:54:35;16.97;54.31
77056;SHT30;67471;44.918;8.614;2024-01-27T14:57:39;16.90;54.09
77056;SHT30;67471;44.918;8.614;2024-01-27T15:00:44;16.84;53.83
77056;SHT30;67471;44.918;8.614;2024-01-27T15:03:48;16.80;54.08
77056;SHT30;67471;44.918;8.614;2024-01-27T15:06:53;16.73;54.54
77056;SHT30;67471;44.918;8.614;2024-01-27T15:09:57;16.69;54.71
77056;SHT30;67471;44.918;8.614;2024-01-27T15:13:00;16.65;54.95
77056;SHT30;67471;44.918;8.614;2024-01-27T15:16:05;16.53;55.36
77056;SHT30;67471;44.918;8.614;2024-01-27T15:19:10;16.53;55.41
77056;SHT30;67471;44.918;8.614;2024-01-27T15:22:13;16.44;55.36
77056;SHT30;67471;44.918;8.614;2024-01-27T15:25:17;16.41;55.17
77056;SHT30;67471;44.918;8.614;2024-01-27T15:28:21;16.35;55.14
77056;SHT30;67471;44.918;8.614;2024-01-27T15:31:25;16.25;55.49
77056;SHT30;67471;44.918;8.614;2024-01-27T15:34:29;16.19;55.80
77056;SHT30;67471;44.918;8.614;2024-01-27T15:37:33;16.11;56.19
77056;SHT30;67471;44.918;8.614;2024-01-27T15:40:36;16.00;56.34
77056;SHT30;67471;44.918;8.614;2024-01-27T15:43:40;15.87;57.03
77056;SHT30;67471;44.918;8.614;2024-01-27T15:46:44;15.76;57.54
77056;SHT30;67471;44.918;8.614;2024-01-27T15:49:48;15.66;58.06
77056;SHT30;67471;44.918;8.614;2024-01-27T15:52:57;15.50;58.99
77056;SHT30;67471;44.918;8.614;2024-01-27T15:56:03;15.36;59.68
77056;SHT30;67471;44.918;8.614;2024-01-27T15:59:07;15.19;60.65
77056;SHT30;67471;44.918;8.614;2024-01-27T16:02:10;15.08;61.10
77056;SHT30;67471;44.918;8.614;2024-01-27T16:05:14;14.87;62.26
77056;SHT30;67471;44.918;8.614;2024-01-27T16:08:20;14.82;62.64
77056;SHT30;67471;44.918;8.614;2024-01-27T16:11:24;14.68;62.99
77056;SHT30;67471;44.918;8.614;2024-01-27T16:14:28;14.60;63.67
77056;SHT30;67471;44.918;8.614;2024-01-27T16:17:31;14.42;64.40
77056;SHT30;67471;44.918;8.614;2024-01-27T16:20:35;14.30;64.79
77056;SHT30;67471;44.918;8.614;2024-01-27T16:23:39;14.23;65.18
77056;SHT30;67471;44.918;8.614;2024-01-27T16:26:43;14.19;65.39
77056;SHT30;67471;44.918;8.614;2024-01-27T16:29:47;14.10;65.66
77056;SHT30;67471;44.918;8.614;2024-01-27T16:32:51;13.96;65.83
77056;SHT30;67471;44.918;8.614;2024-01-27T16:35:55;13.76;66.77
77056;SHT30;67471;44.918;8.614;2024-01-27T16:38:58;13.72;66.52
77056;SHT30;67471;44.918;8.614;2024-01-27T16:42:03;13.62;66.72
77056;SHT30;67471;44.918;8.614;2024-01-27T16:45:09;13.52;66.95
77056;SHT30;67471;44.918;8.614;2024-01-27T16:48:13;13.45;67.40
77056;SHT30;67471;44.918;8.614;2024-01-27T16:51:18;13.38;67.61
77056;SHT30;67471;44.918;8.614;2024-01-27T16:54:21;13.25;67.81
77056;SHT30;67471;44.918;8.614;2024-01-27T16:57:26;13.20;68.19
77056;SHT30;67471;44.918;8.614;2024-01-27T17:00:31;13.10;68.18
77056;SHT30;67471;44.918;8.614;2024-01-27T17:03:35;13.04;68.14
77056;SHT30;67471;44.918;8.614;2024-01-27T17:06:40;12.99;68.13
77056;SHT30;67471;44.918;8.614;2024-01-27T17:09:43;12.87;68.44
77056;SHT30;67471;44.918;8.614;2024-01-27T17:12:47;12.81;68.62
77056;SHT30;67471;44.918;8.614;2024-01-27T17:15:51;12.77;68.68
77056;SHT30;67471;44.918;8.614;2024-01-27T17:19:00;12.69;68.79
77056;SHT30;67471;44.918;8.614;2024-01-27T17:22:04;12.66;68.49
77056;SHT30;67471;44.918;8.614;2024-01-27T17:25:08;12.62;68.71
77056;SHT30;67471;44.918;8.614;2024-01-27T17:28:12;12.49;69.23
77056;SHT30;67471;44.918;8.614;2024-01-27T17:31:15;12.33;69.88
77056;SHT30;67471;44.918;8.614;2024-01-27T17:34:19;12.31;69.79
77056;SHT30;67471;44.918;8.614;2024-01-27T17:37:24;12.17;70.14
77056;SHT30;67471;44.918;8.614;2024-01-27T17:40:28;12.06;71.52
77056;SHT30;67471;44.918;8.614;2024-01-27T17:43:31;12.02;70.92
77056;SHT30;67471;44.918;8.614;2024-01-27T17:46:36;11.95;71.09
77056;SHT30;67471;44.918;8.614;2024-01-27T17:49:40;11.94;71.07
77056;SHT30;67471;44.918;8.614;2024-01-27T17:52:44;11.82;71.12
77056;SHT30;67471;44.918;8.614;2024-01-27T17:55:49;11.78;71.18
77056;SHT30;67471;44.918;8.614;2024-01-27T17:58:52;11.70;71.50
77056;SHT30;67471;44.918;8.614;2024-01-27T18:01:56;11.61;72.05
77056;SHT30;67471;44.918;8.614;2024-01-27T18:05:00;11.57;72.09
77056;SHT30;67471;44.918;8.614;2024-01-27T18:08:04;11.23;73.36
77056;SHT30;67471;44.918;8.614;2024-01-27T18:11:08;11.29;73.04
77056;SHT30;67471;44.918;8.614;2024-01-27T18:14:12;11.27;72.84
77056;SHT30;67471;44.918;8.614;2024-01-27T18:17:15;11.22;73.16
77056;SHT30;67471;44.918;8.614;2024-01-27T18:20:19;11.06;74.22
77056;SHT30;67471;44.918;8.614;2024-01-27T18:23:23;11.06;73.87
77056;SHT30;67471;44.918;8.614;2024-01-27T18:26:27;11.05;74.13
77056;SHT30;67471;44.918;8.614;2024-01-27T18:29:31;11.06;74.03
77056;SHT30;67471;44.918;8.614;2024-01-27T18:32:36;11.06;73.81
77056;SHT30;67471;44.918;8.614;2024-01-27T18:35:39;11.12;73.20
77056;SHT30;67471;44.918;8.614;2024-01-27T18:38:44;11.19;72.28
77056;SHT30;67471;44.918;8.614;2024-01-27T18:41:47;11.26;71.90
77056;SHT30;67471;44.918;8.614;2024-01-27T18:44:51;11.27;71.27
77056;SHT30;67471;44.918;8.614;2024-01-27T18:47:55;11.32;70.92
77056;SHT30;67471;44.918;8.614;2024-01-27T18:51:00;11.27;70.36
77056;SHT30;67471;44.918;8.614;2024-01-27T18:54:04;11.24;70.52
77056;SHT30;67471;44.918;8.614;2024-01-27T18:57:08;11.24;70.39
77056;SHT30;67471;44.918;8.614;2024-01-27T19:00:13;11.22;70.33
77056;SHT30;67471;44.918;8.614;2024-01-27T19:03:17;11.12;70.68
77056;SHT30;67471;44.918;8.614;2024-01-27T19:06:21;11.01;71.13
77056;SHT30;67471;44.918;8.614;2024-01-27T19:09:24;11.09;70.95
77056;SHT30;67471;44.918;8.614;2024-01-27T19:12:28;11.06;70.99
77056;SHT30;67471;44.918;8.614;2024-01-27T19:15:32;10.82;72.51
77056;SHT30;67471;44.918;8.614;2024-01-27T19:18:36;10.62;73.47
77056;SHT30;67471;44.918;8.614;2024-01-27T19:21:41;10.34;74.82
77056;SHT30;67471;44.918;8.614;2024-01-27T19:24:45;10.41;74.63
77056;SHT30;67471;44.918;8.614;2024-01-27T19:27:49;10.30;75.00
77056;SHT30;67471;44.918;8.614;2024-01-27T19:30:53;10.21;75.26
77056;SHT30;67471;44.918;8.614;2024-01-27T19:33:57;10.04;76.14